createdAt,value
2023-02-03T00:00:45.166Z,181.30
2023-02-03T00:01:45.159Z,172.90
2023-02-03T00:02:45.139Z,182.30
2023-02-03T00:03:45.120Z,176.90
2023-02-03T00:04:45.093Z,167.10
2023-02-03T00:05:45.147Z,171.50
2023-02-03T00:06:45.100Z,178.70
2023-02-03T00:07:45.091Z,178.60
2023-02-03T00:08:45.063Z,174.60
2023-02-03T00:09:45.063Z,175.80
2023-02-03T00:10:45.063Z,181.80
2023-02-03T00:11:45.022Z,172.70
2023-02-03T00:12:45.064Z,178.20
2023-02-03T00:13:45.008Z,179.70
2023-02-03T00:14:45.006Z,186.10
2023-02-03T00:15:45.007Z,186.60
2023-02-03T00:16:45.067Z,185.40
2023-02-03T00:17:44.955Z,177.30
2023-02-03T00:18:44.994Z,174.40
2023-02-03T00:19:44.957Z,182.80
2023-02-03T00:20:53.443Z,182.90
2023-02-03T00:21:51.415Z,175.20
2023-02-03T00:22:51.404Z,179.80
2023-02-03T00:23:51.404Z,188.70
2023-02-03T00:24:51.377Z,179.10
2023-02-03T00:25:52.525Z,180.50
2023-02-03T00:26:51.357Z,179.10
2023-02-03T00:27:44.902Z,182.40
2023-02-03T00:28:44.837Z,185.70
2023-02-03T00:29:44.838Z,185.00
2023-02-03T00:30:44.845Z,183.50
2023-02-03T00:31:44.960Z,184.30
2023-02-03T00:32:44.832Z,177.70
2023-02-03T00:33:44.847Z,174.50
2023-02-03T00:34:44.796Z,169.10
2023-02-03T00:35:44.850Z,175.70
2023-02-03T00:36:44.768Z,181.70
2023-02-03T00:37:44.771Z,178.00
2023-02-03T00:38:51.241Z,172.00
2023-02-03T00:39:51.265Z,170.20
2023-02-03T00:40:52.585Z,178.30
2023-02-03T00:41:51.215Z,178.20
2023-02-03T00:42:51.194Z,180.80
2023-02-03T00:43:51.194Z,174.90
2023-02-03T00:44:51.177Z,183.80
2023-02-03T00:45:44.716Z,169.30
2023-02-03T00:46:44.658Z,168.50
2023-02-03T00:47:44.668Z,168.40
2023-02-03T00:48:44.661Z,176.40
2023-02-03T00:49:44.651Z,173.80
2023-02-03T00:50:44.649Z,167.20
2023-02-03T00:51:44.665Z,172.60
2023-02-03T00:52:44.651Z,179.50
2023-02-03T00:53:44.627Z,179.80
2023-02-03T00:54:44.586Z,184.20
2023-02-03T00:55:44.615Z,177.90
2023-02-03T00:56:44.590Z,171.50
2023-02-03T00:57:44.586Z,179.80
2023-02-03T00:58:44.555Z,176.90
2023-02-03T00:59:44.532Z,177.20
2023-02-03T01:00:44.533Z,179.70
2023-02-03T01:01:44.584Z,188.70
2023-02-03T01:02:44.587Z,185.40
2023-02-03T01:03:44.491Z,183.30
2023-02-03T01:04:44.474Z,176.60
2023-02-03T01:05:44.482Z,174.20
2023-02-03T01:06:44.495Z,175.70
2023-02-03T01:07:44.447Z,183.70
2023-02-03T01:08:44.462Z,181.00
2023-02-03T01:09:44.435Z,176.60
2023-02-03T01:10:44.410Z,180.30
2023-02-03T01:11:44.434Z,177.10
2023-02-03T01:12:44.391Z,178.50
2023-02-03T01:13:44.384Z,179.00
2023-02-03T01:14:44.367Z,174.80
2023-02-03T01:15:44.372Z,171.10
2023-02-03T01:16:44.392Z,172.10
2023-02-03T01:17:44.399Z,178.70
2023-02-03T01:18:44.340Z,177.60
2023-02-03T01:19:44.328Z,175.10
2023-02-03T01:20:44.305Z,180.10
2023-02-03T01:21:44.334Z,166.50
2023-02-03T01:22:44.293Z,175.50
2023-02-03T01:23:44.339Z,171.00
2023-02-03T01:24:44.270Z,178.50
2023-02-03T01:25:44.273Z,174.80
2023-02-03T01:26:44.677Z,177.90
2023-02-03T01:27:44.316Z,177.70
2023-02-03T01:28:44.253Z,174.60
2023-02-03T01:29:44.235Z,173.80
2023-02-03T01:30:44.364Z,176.70
2023-02-03T01:31:44.403Z,175.20
2023-02-03T01:32:44.226Z,178.50
2023-02-03T01:33:44.204Z,176.50
2023-02-03T01:34:44.218Z,174.20
2023-02-03T01:35:44.160Z,174.30
2023-02-03T01:36:44.238Z,170.60
2023-02-03T01:37:44.152Z,174.80
2023-02-03T01:38:44.135Z,177.50
2023-02-03T01:39:44.119Z,175.60
2023-02-03T01:40:44.116Z,169.00
2023-02-03T01:41:44.253Z,171.20
2023-02-03T01:42:44.088Z,172.50
2023-02-03T01:43:44.086Z,173.50
2023-02-03T01:44:44.088Z,173.30
2023-02-03T01:45:44.115Z,170.70
2023-02-03T01:46:44.117Z,168.60
2023-02-03T01:47:44.063Z,173.00
2023-02-03T01:48:44.058Z,174.50
2023-02-03T01:49:44.015Z,171.90
2023-02-03T01:50:44.003Z,164.50
2023-02-03T01:51:44.056Z,170.60
2023-02-03T01:52:44.007Z,167.30
2023-02-03T01:53:43.990Z,170.20
2023-02-03T01:54:43.976Z,168.40
2023-02-03T01:55:43.968Z,167.30
2023-02-03T01:56:44.018Z,160.50
2023-02-03T01:57:43.935Z,161.20
2023-02-03T01:58:44.033Z,161.70
2023-02-03T01:59:43.922Z,160.90
2023-02-03T02:00:43.896Z,164.20
2023-02-03T02:01:44.045Z,158.50
2023-02-03T02:02:43.992Z,163.40
2023-02-03T02:03:43.920Z,159.40
2023-02-03T02:04:43.885Z,157.10
2023-02-03T02:05:43.875Z,156.80
2023-02-03T02:06:43.865Z,166.20
2023-02-03T02:07:43.838Z,162.40
2023-02-03T02:08:43.823Z,161.00
2023-02-03T02:09:43.879Z,164.40
2023-02-03T02:10:43.799Z,159.90
2023-02-03T02:11:43.819Z,154.30
2023-02-03T02:12:43.784Z,160.00
2023-02-03T02:13:43.796Z,158.40
2023-02-03T02:14:43.799Z,154.90
2023-02-03T02:15:43.820Z,154.60
2023-02-03T02:16:43.755Z,158.00
2023-02-03T02:17:43.748Z,160.20
2023-02-03T02:18:43.737Z,159.20
2023-02-03T02:19:43.849Z,164.10
2023-02-03T02:20:43.726Z,158.60
2023-02-03T02:21:43.796Z,158.10
2023-02-03T02:22:43.688Z,153.70
2023-02-03T02:23:43.667Z,144.40
2023-02-03T02:24:43.658Z,147.20
2023-02-03T02:25:43.650Z,146.80
2023-02-03T02:26:43.669Z,152.60
2023-02-03T02:27:43.661Z,146.90
2023-02-03T02:28:43.611Z,143.40
2023-02-03T02:29:43.604Z,144.00
2023-02-03T02:30:43.682Z,148.50
2023-02-03T02:31:43.717Z,144.10
2023-02-03T02:32:43.606Z,151.00
2023-02-03T02:33:43.603Z,152.70
2023-02-03T02:34:43.564Z,150.70
2023-02-03T02:35:43.544Z,148.90
2023-02-03T02:36:43.525Z,149.70
2023-02-03T02:37:43.578Z,144.40
2023-02-03T02:38:43.510Z,149.40
2023-02-03T02:39:43.497Z,144.60
2023-02-03T02:40:43.495Z,146.80
2023-02-03T02:41:43.484Z,144.40
2023-02-03T02:42:43.492Z,148.20
2023-02-03T02:43:43.493Z,148.30
2023-02-03T02:44:43.442Z,149.40
2023-02-03T02:45:43.447Z,145.60
2023-02-03T02:46:43.470Z,146.70
2023-02-03T02:47:43.479Z,151.50
2023-02-03T02:48:43.402Z,147.30
2023-02-03T02:49:43.416Z,152.40
2023-02-03T02:50:43.405Z,150.00
2023-02-03T02:51:43.372Z,150.10
2023-02-03T02:52:43.389Z,146.30
2023-02-03T02:53:43.377Z,148.60
2023-02-03T02:54:43.351Z,142.80
2023-02-03T02:55:43.334Z,144.40
2023-02-03T02:56:43.316Z,144.10
2023-02-03T02:57:43.382Z,146.90
2023-02-03T02:58:43.320Z,147.00
2023-02-03T02:59:43.341Z,149.10
2023-02-03T03:00:43.301Z,143.20
2023-02-03T03:01:49.785Z,146.10
2023-02-03T03:02:51.169Z,146.30
2023-02-03T03:03:53.801Z,144.30
2023-02-03T03:04:43.255Z,150.90
2023-02-03T03:05:43.241Z,147.30
2023-02-03T03:06:43.231Z,144.90
2023-02-03T03:07:43.254Z,143.90
2023-02-03T03:08:43.207Z,145.80
2023-02-03T03:09:43.191Z,140.80
2023-02-03T03:10:43.174Z,140.00
2023-02-03T03:11:43.176Z,140.00
2023-02-03T03:12:43.214Z,139.30
2023-02-03T03:13:43.198Z,136.80
2023-02-03T03:14:43.146Z,133.90
2023-02-03T03:15:43.184Z,142.40
2023-02-03T03:16:43.160Z,139.70
2023-02-03T03:17:43.125Z,134.50
2023-02-03T03:18:49.897Z,132.40
2023-02-03T03:19:43.077Z,133.60
2023-02-03T03:20:43.072Z,135.80
2023-02-03T03:21:43.073Z,137.00
2023-02-03T03:22:43.083Z,134.40
2023-02-03T03:23:43.878Z,133.70
2023-02-03T03:24:43.035Z,131.20
2023-02-03T03:25:43.035Z,133.80
2023-02-03T03:26:43.049Z,134.00
2023-02-03T03:27:43.095Z,133.80
2023-02-03T03:28:43.004Z,131.00
2023-02-03T03:29:42.986Z,136.80
2023-02-03T03:30:43.046Z,132.60
2023-02-03T03:31:43.000Z,132.00
2023-02-03T03:32:43.006Z,129.10
2023-02-03T03:33:42.945Z,131.20
2023-02-03T03:34:42.930Z,131.80
2023-02-03T03:35:42.970Z,133.10
2023-02-03T03:36:42.943Z,130.60
2023-02-03T03:37:42.936Z,129.20
2023-02-03T03:38:42.891Z,129.90
2023-02-03T03:39:42.893Z,131.80
2023-02-03T03:40:42.875Z,126.40
2023-02-03T03:41:42.865Z,126.40
2023-02-03T03:42:43.223Z,125.80
2023-02-03T03:43:42.834Z,129.10
2023-02-03T03:44:42.822Z,127.50
2023-02-03T03:45:42.829Z,122.90
2023-02-03T03:46:42.861Z,120.80
2023-02-03T03:47:42.829Z,126.50
2023-02-03T03:48:42.818Z,126.90
2023-02-03T03:49:42.793Z,121.30
2023-02-03T03:50:42.767Z,123.00
2023-02-03T03:51:42.760Z,122.60
2023-02-03T03:52:42.774Z,123.70
2023-02-03T03:53:42.783Z,118.40
2023-02-03T03:54:42.759Z,111.60
2023-02-03T03:55:42.717Z,112.00
2023-02-03T03:56:42.700Z,115.70
2023-02-03T03:57:42.714Z,113.00
2023-02-03T03:58:42.691Z,114.00
2023-02-03T03:59:42.674Z,108.90
2023-02-03T04:00:42.664Z,110.60
2023-02-03T04:01:42.833Z,111.40
2023-02-03T04:02:42.854Z,110.10
2023-02-03T04:03:42.665Z,107.60
2023-02-03T04:04:42.627Z,109.30
2023-02-03T04:05:42.625Z,112.30
2023-02-03T04:06:42.643Z,109.70
2023-02-03T04:07:42.622Z,112.00
2023-02-03T04:08:42.614Z,114.60
2023-02-03T04:09:42.560Z,112.70
2023-02-03T04:10:42.569Z,109.00
2023-02-03T04:11:42.559Z,110.40
2023-02-03T04:12:42.544Z,105.10
2023-02-03T04:13:42.561Z,101.20
2023-02-03T04:14:42.525Z,104.70
2023-02-03T04:15:42.504Z,106.60
2023-02-03T04:16:42.503Z,103.20
2023-02-03T04:17:42.488Z,104.80
2023-02-03T04:18:42.501Z,99.20
2023-02-03T04:19:42.486Z,108.00
2023-02-03T04:20:42.461Z,104.20
2023-02-03T04:21:42.442Z,110.30
2023-02-03T04:22:42.430Z,110.40
2023-02-03T04:23:42.464Z,106.50
2023-02-03T04:24:42.418Z,106.60
2023-02-03T04:25:42.446Z,107.50
2023-02-03T04:26:42.402Z,103.30
2023-02-03T04:27:42.417Z,105.40
2023-02-03T04:28:42.388Z,113.60
2023-02-03T04:29:42.372Z,102.60
2023-02-03T04:30:42.407Z,104.60
2023-02-03T04:31:42.406Z,102.30
2023-02-03T04:32:42.359Z,99.30
2023-02-03T04:33:42.373Z,103.70
2023-02-03T04:34:42.313Z,104.30
2023-02-03T04:35:42.296Z,92.70
2023-02-03T04:36:42.298Z,98.90
2023-02-03T04:37:42.303Z,101.10
2023-02-03T04:38:42.323Z,100.90
2023-02-03T04:39:42.264Z,103.60
2023-02-03T04:40:42.262Z,103.40
2023-02-03T04:41:42.272Z,97.10
2023-02-03T04:42:42.234Z,100.20
2023-02-03T04:43:42.242Z,101.00
2023-02-03T04:44:42.238Z,101.00
2023-02-03T04:45:42.247Z,100.70
2023-02-03T04:46:42.197Z,98.10
2023-02-03T04:47:42.189Z,93.80
2023-02-03T04:48:42.201Z,97.80
2023-02-03T04:49:42.160Z,96.50
2023-02-03T04:50:48.650Z,100.00
2023-02-03T04:51:48.637Z,93.80
2023-02-03T04:52:48.613Z,91.30
2023-02-03T04:53:49.885Z,86.20
2023-02-03T04:54:42.092Z,89.20
2023-02-03T04:55:42.106Z,93.50
2023-02-03T04:56:48.577Z,89.20
2023-02-03T04:57:48.570Z,88.50
2023-02-03T04:58:42.079Z,91.80
2023-02-03T04:59:42.053Z,87.70
2023-02-03T05:00:42.109Z,86.00
2023-02-03T05:01:42.037Z,84.30
2023-02-03T05:02:42.022Z,90.00
2023-02-03T05:03:42.165Z,88.70
2023-02-03T05:04:41.998Z,86.80
2023-02-03T05:05:41.999Z,84.80
2023-02-03T05:06:42.016Z,90.60
2023-02-03T05:07:41.969Z,89.10
2023-02-03T05:08:41.976Z,80.80
2023-02-03T05:09:41.985Z,87.10
2023-02-03T05:10:41.931Z,86.00
2023-02-03T05:11:41.937Z,86.80
2023-02-03T05:12:41.932Z,88.20
2023-02-03T05:13:41.930Z,91.80
2023-02-03T05:14:41.909Z,89.10
2023-02-03T05:15:41.909Z,87.70
2023-02-03T05:16:41.935Z,86.70
2023-02-03T05:17:41.871Z,86.00
2023-02-03T05:18:41.873Z,88.70
2023-02-03T05:19:41.858Z,91.50
2023-02-03T05:20:41.866Z,84.10
2023-02-03T05:21:41.851Z,88.10
2023-02-03T05:22:41.828Z,91.30
2023-02-03T05:23:41.882Z,91.70
2023-02-03T05:24:41.827Z,94.30
2023-02-03T05:25:41.833Z,91.00
2023-02-03T05:26:41.794Z,90.40
2023-02-03T05:27:41.835Z,89.10
2023-02-03T05:28:41.800Z,85.40
2023-02-03T05:29:41.800Z,85.30
2023-02-03T05:30:42.187Z,83.70
2023-02-03T05:31:41.792Z,88.20
2023-02-03T05:32:41.807Z,83.50
2023-02-03T05:33:41.719Z,81.20
2023-02-03T05:34:42.462Z,76.10
2023-02-03T05:35:41.690Z,79.30
2023-02-03T05:36:41.676Z,82.20
2023-02-03T05:37:41.671Z,84.40
2023-02-03T05:38:41.661Z,86.70
2023-02-03T05:39:41.662Z,82.40
2023-02-03T05:40:41.638Z,85.00
2023-02-03T05:41:41.642Z,85.30
2023-02-03T05:42:41.611Z,91.60
2023-02-03T05:43:41.617Z,91.50
2023-02-03T05:44:41.620Z,87.20
2023-02-03T05:45:41.598Z,88.20
2023-02-03T05:46:41.595Z,90.60
2023-02-03T05:47:41.562Z,90.90
2023-02-03T05:48:41.548Z,87.50
2023-02-03T05:49:41.631Z,89.20
2023-02-03T05:50:41.555Z,91.10
2023-02-03T05:51:41.529Z,89.90
2023-02-03T05:52:41.506Z,87.30
2023-02-03T05:53:41.521Z,86.50
2023-02-03T05:54:41.511Z,84.40
2023-02-03T05:55:41.482Z,85.80
2023-02-03T05:56:41.469Z,80.30
2023-02-03T05:57:41.452Z,84.20
2023-02-03T05:58:41.446Z,82.00
2023-02-03T05:59:41.481Z,85.60
2023-02-03T06:00:41.428Z,86.00
2023-02-03T06:01:41.427Z,85.50
2023-02-03T06:02:41.400Z,79.90
2023-02-03T06:03:43.237Z,80.70
2023-02-03T06:04:41.477Z,78.10
2023-02-03T06:05:41.529Z,80.20
2023-02-03T06:06:41.353Z,74.80
2023-02-03T06:07:41.353Z,80.70
2023-02-03T06:08:41.354Z,77.10
2023-02-03T06:09:41.359Z,76.90
2023-02-03T06:10:41.315Z,82.90
2023-02-03T06:11:41.344Z,83.50
2023-02-03T06:12:41.295Z,84.80
2023-02-03T06:13:41.289Z,81.50
2023-02-03T06:14:41.316Z,84.30
2023-02-03T06:15:41.279Z,83.00
2023-02-03T06:16:41.554Z,84.40
2023-02-03T06:17:41.257Z,82.20
2023-02-03T06:18:41.237Z,81.40
2023-02-03T06:19:41.262Z,80.40
2023-02-03T06:20:41.220Z,79.90
2023-02-03T06:21:41.219Z,78.70
2023-02-03T06:22:41.219Z,80.60
2023-02-03T06:23:41.257Z,78.90
2023-02-03T06:24:41.193Z,79.30
2023-02-03T06:25:41.171Z,84.90
2023-02-03T06:26:41.754Z,82.40
2023-02-03T06:27:41.277Z,78.40
2023-02-03T06:28:41.164Z,81.60
2023-02-03T06:29:41.167Z,80.20
2023-02-03T06:30:41.242Z,79.30
2023-02-03T06:31:41.225Z,77.80
2023-02-03T06:32:41.084Z,82.50
2023-02-03T06:33:41.079Z,80.60
2023-02-03T06:34:41.107Z,75.80
2023-02-03T06:35:41.072Z,82.20
2023-02-03T06:36:41.047Z,77.40
2023-02-03T06:37:41.058Z,84.00
2023-02-03T06:38:41.045Z,79.90
2023-02-03T06:39:41.060Z,82.90
2023-02-03T06:40:41.026Z,81.70
2023-02-03T06:41:41.017Z,80.90
2023-02-03T06:42:40.992Z,84.10
2023-02-03T06:43:40.984Z,83.50
2023-02-03T06:44:41.021Z,79.40
2023-02-03T06:45:40.990Z,79.30
2023-02-03T06:46:40.972Z,82.30
2023-02-03T06:47:40.993Z,75.50
2023-02-03T06:48:40.956Z,75.10
2023-02-03T06:49:40.923Z,78.60
2023-02-03T06:50:40.928Z,83.10
2023-02-03T06:51:40.898Z,84.50
2023-02-03T06:52:40.888Z,89.30
2023-02-03T06:53:40.922Z,86.60
2023-02-03T06:54:40.869Z,85.40
2023-02-03T06:55:40.894Z,87.20
2023-02-03T06:56:40.840Z,86.50
2023-02-03T06:57:40.846Z,88.60
2023-02-03T06:58:40.836Z,91.80
2023-02-03T06:59:40.819Z,87.30
2023-02-03T07:00:40.854Z,79.70
2023-02-03T07:01:40.855Z,89.10
2023-02-03T07:02:40.820Z,85.60
2023-02-03T07:03:40.793Z,88.60
2023-02-03T07:04:40.764Z,88.80
2023-02-03T07:05:40.916Z,91.60
2023-02-03T07:06:40.744Z,88.30
2023-02-03T07:07:40.805Z,89.70
2023-02-03T07:08:40.720Z,86.70
2023-02-03T07:09:40.721Z,90.80
2023-02-03T07:10:40.724Z,82.60
2023-02-03T07:11:40.734Z,85.20
2023-02-03T07:12:40.686Z,87.80
2023-02-03T07:13:40.669Z,89.90
2023-02-03T07:14:40.657Z,89.20
2023-02-03T07:15:40.765Z,89.00
2023-02-03T07:16:40.647Z,94.40
2023-02-03T07:17:40.667Z,91.00
2023-02-03T07:18:47.195Z,90.10
2023-02-03T07:19:40.608Z,92.90
2023-02-03T07:20:40.679Z,93.50
2023-02-03T07:21:40.643Z,89.50
2023-02-03T07:22:40.573Z,89.60
2023-02-03T07:23:40.591Z,92.30
2023-02-03T07:24:40.548Z,96.60
2023-02-03T07:25:40.613Z,98.00
2023-02-03T07:26:40.544Z,92.90
2023-02-03T07:27:40.545Z,93.50
2023-02-03T07:28:40.508Z,92.60
2023-02-03T07:29:40.501Z,94.70
2023-02-03T07:30:40.557Z,92.80
2023-02-03T07:31:40.579Z,93.20
2023-02-03T07:32:40.468Z,97.40
2023-02-03T07:33:40.476Z,97.30
2023-02-03T07:34:40.447Z,89.70
2023-02-03T07:35:48.289Z,95.60
2023-02-03T07:36:46.923Z,95.90
2023-02-03T07:37:46.935Z,96.00
2023-02-03T07:38:46.893Z,95.00
2023-02-03T07:39:40.403Z,95.70
2023-02-03T07:40:40.408Z,97.40
2023-02-03T07:41:40.381Z,95.20
2023-02-03T07:42:40.367Z,96.30
2023-02-03T07:43:40.381Z,99.80
2023-02-03T07:44:40.349Z,99.50
2023-02-03T07:45:40.381Z,98.70
2023-02-03T07:46:40.405Z,100.80
2023-02-03T07:47:40.323Z,99.40
2023-02-03T07:48:40.315Z,101.70
2023-02-03T07:49:40.332Z,98.20
2023-02-03T07:50:40.287Z,103.70
2023-02-03T07:51:40.309Z,102.80
2023-02-03T07:52:40.300Z,100.90
2023-02-03T07:53:40.271Z,101.30
2023-02-03T07:54:40.249Z,104.30
2023-02-03T07:55:40.265Z,101.40
2023-02-03T07:56:40.252Z,105.80
2023-02-03T07:57:40.223Z,103.20
2023-02-03T07:58:40.226Z,107.20
2023-02-03T07:59:40.230Z,111.50
2023-02-03T08:00:40.181Z,110.60
2023-02-03T08:01:40.233Z,110.20
2023-02-03T08:02:40.186Z,108.70
2023-02-03T08:03:40.278Z,115.10
2023-02-03T08:04:40.171Z,112.50
2023-02-03T08:05:40.250Z,117.60
2023-02-03T08:06:40.149Z,112.70
2023-02-03T08:07:40.114Z,111.20
2023-02-03T08:08:40.099Z,109.60
2023-02-03T08:09:40.098Z,116.10
2023-02-03T08:10:40.076Z,111.40
2023-02-03T08:11:40.089Z,115.20
2023-02-03T08:12:40.083Z,114.10
2023-02-03T08:13:40.051Z,116.60
2023-02-03T08:14:40.039Z,114.10
2023-02-03T08:15:40.040Z,112.60
2023-02-03T08:16:40.053Z,113.80
2023-02-03T08:17:40.025Z,110.60
2023-02-03T08:18:40.005Z,107.20
2023-02-03T08:19:39.996Z,115.50
2023-02-03T08:20:39.977Z,112.60
2023-02-03T08:21:39.991Z,131.30
2023-02-03T08:22:39.973Z,115.50
2023-02-03T08:23:39.955Z,116.00
2023-02-03T08:24:39.955Z,116.90
2023-02-03T08:25:39.952Z,111.90
2023-02-03T08:26:39.947Z,113.40
2023-02-03T08:27:39.954Z,114.70
2023-02-03T08:28:39.905Z,119.90
2023-02-03T08:29:39.899Z,118.50
2023-02-03T08:30:39.895Z,116.30
2023-02-03T08:31:40.029Z,115.90
2023-02-03T08:32:39.857Z,120.20
2023-02-03T08:33:39.867Z,111.20
2023-02-03T08:34:39.849Z,117.30
2023-02-03T08:35:39.910Z,116.30
2023-02-03T08:36:39.866Z,117.70
2023-02-03T08:37:39.824Z,116.00
2023-02-03T08:38:39.826Z,116.00
2023-02-03T08:39:39.783Z,120.40
2023-02-03T08:40:39.834Z,118.30
2023-02-03T08:41:39.842Z,115.00
2023-02-03T08:42:39.766Z,115.40
2023-02-03T08:43:39.737Z,116.90
2023-02-03T08:44:39.735Z,115.00
2023-02-03T08:45:39.810Z,117.10
2023-02-03T08:46:39.739Z,114.00
2023-02-03T08:47:39.748Z,117.10
2023-02-03T08:48:39.690Z,112.60
2023-02-03T08:49:39.758Z,111.40
2023-02-03T08:50:39.686Z,112.60
2023-02-03T08:51:39.671Z,116.70
2023-02-03T08:52:39.689Z,117.10
2023-02-03T08:53:39.640Z,119.40
2023-02-03T08:54:39.631Z,119.20
2023-02-03T08:55:39.641Z,120.60
2023-02-03T08:56:39.612Z,118.60
2023-02-03T08:57:39.636Z,116.00
2023-02-03T08:58:39.596Z,118.20
2023-02-03T08:59:39.614Z,116.20
2023-02-03T09:00:39.578Z,119.10
2023-02-03T09:01:39.564Z,118.20
2023-02-03T09:02:39.577Z,114.00
2023-02-03T09:03:39.538Z,120.00
2023-02-03T09:04:39.572Z,120.90
2023-02-03T09:05:39.517Z,118.60
2023-02-03T09:06:39.511Z,122.50
2023-02-03T09:07:39.589Z,121.30
2023-02-03T09:08:39.501Z,121.70
2023-02-03T09:09:39.502Z,120.70
2023-02-03T09:10:39.533Z,118.00
2023-02-03T09:11:39.452Z,123.10
2023-02-03T09:12:39.465Z,121.10
2023-02-03T09:13:39.447Z,122.70
2023-02-03T09:14:39.438Z,122.60
2023-02-03T09:15:39.409Z,122.30
2023-02-03T09:16:39.446Z,119.40
2023-02-03T09:17:39.414Z,122.80
2023-02-03T09:18:39.388Z,118.20
2023-02-03T09:19:39.543Z,121.30
2023-02-03T09:20:39.384Z,122.70
2023-02-03T09:21:46.442Z,117.10
2023-02-03T09:22:39.369Z,120.20
2023-02-03T09:23:39.340Z,117.80
2023-02-03T09:24:39.327Z,119.90
2023-02-03T09:25:39.332Z,120.00
2023-02-03T09:26:39.303Z,121.10
2023-02-03T09:27:39.364Z,124.50
2023-02-03T09:28:39.284Z,123.60
2023-02-03T09:29:39.269Z,125.10
2023-02-03T09:30:39.322Z,127.00
2023-02-03T09:31:39.326Z,124.10
2023-02-03T09:32:39.267Z,123.50
2023-02-03T09:33:39.230Z,126.50
2023-02-03T09:34:39.234Z,127.60
2023-02-03T09:35:39.212Z,125.40
2023-02-03T09:36:45.688Z,124.40
2023-02-03T09:37:39.225Z,122.70
2023-02-03T09:38:45.690Z,122.00
2023-02-03T09:39:45.645Z,121.70
2023-02-03T09:40:39.167Z,126.10
2023-02-03T09:41:39.143Z,125.10
2023-02-03T09:42:39.160Z,126.10
2023-02-03T09:43:39.169Z,126.10
2023-02-03T09:44:39.138Z,125.40
2023-02-03T09:45:39.227Z,122.90
2023-02-03T09:46:39.095Z,123.70
2023-02-03T09:47:39.150Z,126.00
2023-02-03T09:48:39.085Z,124.90
2023-02-03T09:49:39.076Z,125.00
2023-02-03T09:50:39.066Z,128.30
2023-02-03T09:51:39.049Z,133.10
2023-02-03T09:52:39.060Z,127.90
2023-02-03T09:53:39.019Z,130.10
2023-02-03T09:54:39.011Z,128.60
2023-02-03T09:55:39.031Z,131.10
2023-02-03T09:56:38.999Z,129.80
2023-02-03T09:57:46.003Z,130.10
2023-02-03T09:58:38.972Z,128.50
2023-02-03T09:59:38.957Z,127.40
2023-02-03T10:00:38.997Z,128.70
2023-02-03T10:01:38.965Z,129.30
2023-02-03T10:02:39.009Z,130.00
2023-02-03T10:03:38.923Z,128.20
2023-02-03T10:04:38.924Z,130.40
2023-02-03T10:05:38.899Z,130.50
2023-02-03T10:06:38.915Z,130.70
2023-02-03T10:07:38.906Z,131.10
2023-02-03T10:08:38.875Z,127.30
2023-02-03T10:09:38.873Z,130.90
2023-02-03T10:10:38.857Z,131.70
2023-02-03T10:11:38.843Z,128.50
2023-02-03T10:12:38.861Z,124.70
2023-02-03T10:13:38.824Z,126.80
2023-02-03T10:14:38.814Z,129.10
2023-02-03T10:15:38.797Z,132.00
2023-02-03T10:16:38.852Z,130.60
2023-02-03T10:17:38.794Z,136.70
2023-02-03T10:18:38.767Z,130.70
2023-02-03T10:19:38.765Z,131.60
2023-02-03T10:20:38.760Z,130.80
2023-02-03T10:21:38.738Z,132.60
2023-02-03T10:22:38.760Z,130.10
2023-02-03T10:23:38.721Z,133.30
2023-02-03T10:24:38.705Z,134.50
2023-02-03T10:25:38.703Z,135.20
2023-02-03T10:26:38.699Z,134.90
2023-02-03T10:27:38.793Z,135.10
2023-02-03T10:28:38.695Z,135.10
2023-02-03T10:29:38.652Z,136.10
2023-02-03T10:30:38.768Z,135.00
2023-02-03T10:31:38.749Z,139.50
2023-02-03T10:32:38.628Z,139.10
2023-02-03T10:33:38.642Z,139.40
2023-02-03T10:34:38.608Z,139.10
2023-02-03T10:35:38.589Z,141.00
2023-02-03T10:36:38.585Z,141.90
2023-02-03T10:37:38.597Z,141.20
2023-02-03T10:38:38.608Z,139.50
2023-02-03T10:39:38.554Z,139.20
2023-02-03T10:40:38.575Z,138.30
2023-02-03T10:41:38.543Z,138.80
2023-02-03T10:42:38.565Z,140.50
2023-02-03T10:43:38.531Z,142.70
2023-02-03T10:44:38.520Z,143.70
2023-02-03T10:45:38.511Z,141.10
2023-02-03T10:46:38.574Z,141.00
2023-02-03T10:47:38.477Z,144.90
2023-02-03T10:48:38.510Z,140.00
2023-02-03T10:49:38.449Z,136.80
2023-02-03T10:50:38.455Z,137.10
2023-02-03T10:51:38.434Z,140.80
2023-02-03T10:52:38.424Z,139.10
2023-02-03T10:53:38.443Z,138.70
2023-02-03T10:54:38.408Z,139.10
2023-02-03T10:55:38.385Z,137.70
2023-02-03T10:56:38.406Z,139.70
2023-02-03T10:57:38.367Z,141.10
2023-02-03T10:58:38.386Z,141.10
2023-02-03T10:59:38.350Z,143.70
2023-02-03T11:00:38.343Z,144.20
2023-02-03T11:01:38.437Z,142.70
2023-02-03T11:02:38.363Z,142.90
2023-02-03T11:03:38.334Z,143.90
2023-02-03T11:04:38.315Z,143.90
2023-02-03T11:05:38.285Z,141.50
2023-02-03T11:06:38.292Z,140.80
2023-02-03T11:07:38.274Z,141.40
2023-02-03T11:08:38.288Z,140.30
2023-02-03T11:09:38.267Z,142.80
2023-02-03T11:10:38.254Z,139.40
2023-02-03T11:11:38.229Z,140.70
2023-02-03T11:12:38.240Z,140.20
2023-02-03T11:13:38.253Z,138.30
2023-02-03T11:14:38.225Z,138.70
2023-02-03T11:15:38.268Z,133.60
2023-02-03T11:16:39.751Z,139.40
2023-02-03T11:17:38.172Z,138.40
2023-02-03T11:18:38.212Z,135.70
2023-02-03T11:19:38.153Z,137.50
2023-02-03T11:20:38.150Z,138.90
2023-02-03T11:21:38.225Z,143.20
2023-02-03T11:22:38.133Z,144.10
2023-02-03T11:23:38.130Z,156.70
2023-02-03T11:24:38.098Z,157.70
2023-02-03T11:25:38.088Z,161.80
2023-02-03T11:26:38.094Z,163.90
2023-02-03T11:27:38.179Z,172.90
2023-02-03T11:28:38.095Z,180.50
2023-02-03T11:29:38.045Z,185.50
2023-02-03T11:30:38.050Z,184.70
2023-02-03T11:31:38.214Z,185.90
2023-02-03T11:32:38.047Z,182.90
2023-02-03T11:33:38.003Z,187.90
2023-02-03T11:34:38.033Z,192.90
2023-02-03T11:35:38.031Z,205.70
2023-02-03T11:36:38.009Z,207.90
2023-02-03T11:37:38.015Z,207.90
2023-02-03T11:38:37.982Z,217.90
2023-02-03T11:39:38.000Z,226.40
2023-02-03T11:40:37.940Z,229.00
2023-02-03T11:41:37.922Z,233.50
2023-02-03T11:42:37.921Z,242.00
2023-02-03T11:43:37.912Z,240.00
2023-02-03T11:44:37.928Z,243.40
2023-02-03T11:45:37.911Z,251.10
2023-02-03T11:46:37.945Z,250.40
2023-02-03T11:47:37.902Z,251.80
2023-02-03T11:48:37.876Z,249.90
2023-02-03T11:49:37.873Z,252.00
2023-02-03T11:50:37.843Z,253.50
2023-02-03T11:51:37.828Z,245.00
2023-02-03T11:52:37.853Z,241.40
2023-02-03T11:53:51.247Z,253.20
2023-02-03T11:54:37.861Z,248.30
2023-02-03T11:55:37.800Z,246.20
2023-02-03T11:56:37.785Z,242.20
2023-02-03T11:57:37.764Z,235.00
2023-02-03T11:58:37.778Z,230.20
2023-02-03T11:59:37.779Z,224.30
2023-02-03T12:00:37.749Z,220.40
2023-02-03T12:01:37.727Z,215.40
2023-02-03T12:02:37.891Z,218.70
2023-02-03T12:03:37.732Z,225.90
2023-02-03T12:04:37.795Z,228.10
2023-02-03T12:05:37.689Z,220.50
2023-02-03T12:06:37.675Z,215.00
2023-02-03T12:07:37.664Z,219.50
2023-02-03T12:08:37.666Z,222.10
2023-02-03T12:09:37.668Z,216.80
2023-02-03T12:10:37.641Z,212.00
2023-02-03T12:11:37.635Z,209.30
2023-02-03T12:12:37.637Z,197.70
2023-02-03T12:13:37.603Z,194.20
2023-02-03T12:14:37.635Z,185.30
2023-02-03T12:15:37.609Z,185.40
2023-02-03T12:16:37.693Z,192.40
2023-02-03T12:17:37.568Z,193.70
2023-02-03T12:18:37.558Z,193.00
2023-02-03T12:19:37.564Z,187.00
2023-02-03T12:20:37.540Z,197.70
2023-02-03T12:21:37.549Z,190.70
2023-02-03T12:22:37.570Z,186.10
2023-02-03T12:23:37.508Z,182.50
2023-02-03T12:24:37.533Z,191.80
2023-02-03T12:25:37.497Z,183.40
2023-02-03T12:26:37.474Z,178.80
2023-02-03T12:27:37.482Z,169.50
2023-02-03T12:28:37.531Z,177.40
2023-02-03T12:29:37.463Z,177.60
2023-02-03T12:30:37.498Z,170.80
2023-02-03T12:31:37.489Z,168.50
2023-02-03T12:32:37.414Z,161.10
2023-02-03T12:33:37.415Z,163.40
2023-02-03T12:34:37.392Z,156.50